Old Forge, NY

2:37 AM EST on March 01, 2015 (GMT -0500)
Griffiss | Change Station
CLOSE
Current Station
Airport
Location: Rome,
Elevation: 505 ft
Nearby Weather Stations
Active Advisory: Winter Weather Advisory

Elev 505 ft 43.23 °N, 75.41 °W | Updated 44 minutes ago

Clear
Clear
-4 °F
Feels Like -15 °F
N
5
Wind Variable Wind from ESE

Today
High -- | Low -- °F
--% Chance of Precip.
Yesterday
High -- | Low -- °F
Precip. -- in
6:36 AM 5:47 PM
Waxing Gibbous, 83% visible
Pressure 30.72 in
Visibility 10.0 miles
Clouds Clear
Windchill -15 °F
Dew Point -8 °F
Humidity 83%
Rainfall 0.00 in
Snow Depth Not available.
UV 0 out of 12
Pollen .40 out of 12
Air Quality Not available.
Flu Activity Not available.
METAR KRME 010653Z AUTO 12004KT 10SM CLR M20/M22 A3069 RMK AO2 SLP402 T12001222 $

More Conditions Fewer Conditions

Pressure 30.72 in
Visibility 10.0 miles
Clouds Clear
Windchill -15 °F
Dew Point -8 °F
Humidity 83%
Rainfall 0.00 in
Snow Depth Not available.
UV 0 out of 12
Pollen .40 out of 12
Air Quality Not available.
Flu Activity Not available.
METAR KRME 010653Z AUTO 12004KT 10SM CLR M20/M22 A3069 RMK AO2 SLP402 T12001222 $

More Conditions Fewer Conditions

10-Day Weather Forecast

Almanac

Astronomy

Mar. 01, 2015 Rise Set
Actual Time
Civil Twilight
Nautical Twilight
Astronomical Twilight
Moon
Length of Visible Light
Length of Day
Tomorrow will be .
, % of the Moon is Illuminated

Today's Extremes

State Highs State Lows

Community

WunderPhotos

Upload Photos

1,801,347 photos uploaded!

WunderBlogs® & News

Nearby

Air Quality

  Air Quality AQ Index Pollutant
Not available.

Snow Depth

Station Depth Elevation

Earthquake Activity

City Distance Mag. Time & Date
Minimum magnitude displayed is 2.5.

Coastal Water Temperatures

Place Temperature

Nearby Weather Stations

Winter Weather Advisory
Statement as of 2:30 PM EST on February 28, 2015

... Winter Weather Advisory in effect from noon Sunday to 7 am EST
Monday...

The National Weather Service in Albany has issued a Winter
Weather Advisory for snow... which is in effect from noon Sunday
to 7 am EST Monday.

* Locations... Herkimer County... the Mohawk Valley... Schoharie
valley... eastern Catskills... Mid Hudson
valley... Taconics... Litchfield Hills... the Berkshires and
southern Green Mountains.

* Hazard types... snow.

* Snow accumulations... 4 to 6 inches.

* Timing... Sunday afternoon through Sunday night.

* Impacts... snow covered roads and slippery travel conditions.

* Winds... southwest 10 to 15 mph with gusts up to 25 mph.

* Temperatures... in the upper teens to mid 20s.

Precautionary/preparedness actions...

A Winter Weather Advisory for snow means that periods of snow
will cause primarily travel difficulties. Be prepared for snow
covered roads and limited visibilities... and use caution while
driving.